createdAt,value
2022-09-24T00:01:25.286Z,85.22
2022-09-24T00:03:54.293Z,85.46
2022-09-24T00:06:20.879Z,85.86
2022-09-24T00:08:50.723Z,85.96
2022-09-24T00:11:20.127Z,85.87
2022-09-24T00:13:47.431Z,86.23
2022-09-24T00:16:15.967Z,86.16
2022-09-24T00:18:42.891Z,86.33
2022-09-24T00:21:20.539Z,87.11
2022-09-24T00:23:52.835Z,87.68
2022-09-24T00:26:38.942Z,86.85
2022-09-24T00:29:06.380Z,87.15
2022-09-24T00:31:33.186Z,87.27
2022-09-24T00:34:01.055Z,87.69
2022-09-24T00:36:28.018Z,87.52
2022-09-24T00:38:56.996Z,87.62
2022-09-24T00:41:30.018Z,87.76
2022-09-24T00:43:57.726Z,87.44
2022-09-24T00:46:50.987Z,87.37
2022-09-24T00:49:19.000Z,87.89
2022-09-24T00:51:48.706Z,87.88
2022-09-24T00:54:22.598Z,88.82
2022-09-24T00:56:51.084Z,89.02
2022-09-24T00:59:23.507Z,88.66
2022-09-24T01:01:52.932Z,88.55
2022-09-24T01:04:21.312Z,88.44
2022-09-24T01:06:52.144Z,88.89
2022-09-24T01:09:22.145Z,88.90
2022-09-24T01:12:04.831Z,88.68
2022-09-24T01:14:46.768Z,88.87
2022-09-24T01:17:16.171Z,88.47
2022-09-24T01:20:20.379Z,88.61
2022-09-24T01:22:46.800Z,88.59
2022-09-24T01:25:26.758Z,88.79
2022-09-24T01:27:56.583Z,88.91
2022-09-24T01:30:25.662Z,88.34
2022-09-24T01:32:59.800Z,88.47
2022-09-24T01:35:33.210Z,88.35
2022-09-24T01:38:21.830Z,88.20
2022-09-24T01:40:50.658Z,88.37
2022-09-24T01:43:25.583Z,87.77
2022-09-24T01:45:52.502Z,87.72
2022-09-24T01:48:21.951Z,87.92
2022-09-24T01:51:03.181Z,87.61
2022-09-24T01:53:34.855Z,87.04
2022-09-24T01:56:08.300Z,87.38
2022-09-24T01:58:48.684Z,87.39
2022-09-24T02:01:23.009Z,87.58
2022-09-24T02:03:56.583Z,87.67
2022-09-24T02:06:32.576Z,87.85
2022-09-24T02:08:59.476Z,87.03
2022-09-24T02:11:28.139Z,87.25
2022-09-24T02:14:06.769Z,87.50
2022-09-24T02:16:37.703Z,87.59
2022-09-24T02:19:07.896Z,87.28
2022-09-24T02:21:38.052Z,87.42
2022-09-24T02:24:23.055Z,87.06
2022-09-24T02:26:49.682Z,86.97
2022-09-24T02:29:18.548Z,86.27
2022-09-24T02:31:49.686Z,86.89
2022-09-24T02:34:21.036Z,87.29
2022-09-24T02:36:57.946Z,87.35
2022-09-24T02:39:24.475Z,86.96
2022-09-24T02:41:52.527Z,87.25
2022-09-24T02:44:19.942Z,87.47
2022-09-24T02:46:47.386Z,87.30
2022-09-24T02:49:14.768Z,87.12
2022-09-24T02:51:42.589Z,87.24
2022-09-24T02:54:09.942Z,86.66
2022-09-24T02:56:37.003Z,85.53
2022-09-24T02:59:04.667Z,85.68
2022-09-24T03:01:32.526Z,85.78
2022-09-24T03:03:59.358Z,84.79
2022-09-24T03:06:26.736Z,84.87
2022-09-24T03:08:54.064Z,84.89
2022-09-24T03:11:21.773Z,83.85
2022-09-24T03:13:48.956Z,84.91
2022-09-24T03:16:16.469Z,85.22
2022-09-24T03:18:43.460Z,85.79
2022-09-24T03:21:12.653Z,86.18
2022-09-24T03:23:39.990Z,86.03
2022-09-24T03:26:06.565Z,86.69
2022-09-24T03:28:33.186Z,87.02
2022-09-24T03:31:02.793Z,88.00
2022-09-24T03:33:33.494Z,87.49
2022-09-24T03:36:06.183Z,86.44
2022-09-24T03:38:32.781Z,88.14
2022-09-24T03:41:00.195Z,88.27
2022-09-24T03:43:27.164Z,87.55
2022-09-24T03:45:54.203Z,87.52
2022-09-24T03:48:22.269Z,87.80
2022-09-24T03:50:49.053Z,88.24
2022-09-24T03:53:16.223Z,87.38
2022-09-24T03:55:48.794Z,87.63
2022-09-24T03:58:16.373Z,88.16
2022-09-24T04:00:42.990Z,88.42
2022-09-24T04:03:09.983Z,88.02
2022-09-24T04:05:37.036Z,88.12
2022-09-24T04:08:05.197Z,88.77
2022-09-24T04:10:32.059Z,88.62
2022-09-24T04:12:58.758Z,89.55
2022-09-24T04:15:25.269Z,89.27
2022-09-24T04:17:57.290Z,88.38
2022-09-24T04:20:27.107Z,88.63
2022-09-24T04:22:56.041Z,88.85
2022-09-24T04:25:24.056Z,88.57
2022-09-24T04:27:55.607Z,87.64
2022-09-24T04:30:23.641Z,87.35
2022-09-24T04:32:51.578Z,86.86
2022-09-24T04:35:22.808Z,86.24
2022-09-24T04:37:50.157Z,86.33
2022-09-24T04:40:17.631Z,85.80
2022-09-24T04:42:46.293Z,85.16
2022-09-24T04:45:17.333Z,85.19
2022-09-24T04:47:43.820Z,85.69
2022-09-24T04:50:11.462Z,85.51
2022-09-24T04:52:39.006Z,86.28
2022-09-24T04:55:06.025Z,86.53
2022-09-24T04:57:36.325Z,85.99
2022-09-24T05:00:09.213Z,86.04
2022-09-24T05:02:35.856Z,85.54
2022-09-24T05:05:03.048Z,84.79
2022-09-24T05:07:29.562Z,85.82
2022-09-24T05:09:56.715Z,86.64
2022-09-24T05:12:23.300Z,86.07
2022-09-24T05:14:49.773Z,86.77
2022-09-24T05:17:16.455Z,86.47
2022-09-24T05:19:43.077Z,87.37
2022-09-24T05:22:09.552Z,87.81
2022-09-24T05:24:36.232Z,88.45
2022-09-24T05:27:11.873Z,87.79
2022-09-24T05:29:43.581Z,86.52
2022-09-24T05:32:12.761Z,85.40
2022-09-24T05:34:41.347Z,85.40
2022-09-24T05:37:09.778Z,86.43
2022-09-24T05:39:36.256Z,87.01
2022-09-24T05:42:05.576Z,87.12
2022-09-24T05:44:32.388Z,85.84
2022-09-24T05:46:59.507Z,85.36
2022-09-24T05:49:26.316Z,84.57
2022-09-24T05:51:52.888Z,85.16
2022-09-24T05:54:19.905Z,85.19
2022-09-24T05:56:46.549Z,84.93
2022-09-24T05:59:13.285Z,84.48
2022-09-24T06:01:41.022Z,83.71
2022-09-24T06:04:09.329Z,84.01
2022-09-24T06:06:36.205Z,83.61
2022-09-24T06:09:03.455Z,83.89
2022-09-24T06:11:40.163Z,84.24
2022-09-24T06:14:08.730Z,84.02
2022-09-24T06:16:35.510Z,84.52
2022-09-24T06:19:02.240Z,84.59
2022-09-24T06:21:28.800Z,85.07
2022-09-24T06:23:55.299Z,84.22
2022-09-24T06:26:21.857Z,84.02
2022-09-24T06:28:48.568Z,84.03
2022-09-24T06:31:15.275Z,84.62
2022-09-24T06:33:43.160Z,84.54
2022-09-24T06:36:10.806Z,84.29
2022-09-24T06:38:40.350Z,84.52
2022-09-24T06:41:07.775Z,84.02
2022-09-24T06:43:34.954Z,83.35
2022-09-24T06:46:02.184Z,83.54
2022-09-24T06:48:31.138Z,83.44
2022-09-24T06:50:57.895Z,82.47
2022-09-24T06:53:24.914Z,83.18
2022-09-24T06:55:51.977Z,81.97
2022-09-24T06:58:21.029Z,81.42
2022-09-24T07:01:06.647Z,81.07
2022-09-24T07:03:35.031Z,80.26
2022-09-24T07:06:04.776Z,80.28
2022-09-24T07:08:31.900Z,80.09
2022-09-24T07:10:59.038Z,80.55
2022-09-24T07:13:25.556Z,81.49
2022-09-24T07:15:53.141Z,81.14
2022-09-24T07:18:20.586Z,81.37
2022-09-24T07:20:54.921Z,80.55
2022-09-24T07:23:22.197Z,80.46
2022-09-24T07:25:49.490Z,80.06
2022-09-24T07:28:16.553Z,79.85
2022-09-24T07:30:43.293Z,80.22
2022-09-24T07:33:09.937Z,80.20
2022-09-24T07:35:40.354Z,80.55
2022-09-24T07:38:12.406Z,81.19
2022-09-24T07:40:39.322Z,79.76
2022-09-24T07:43:13.850Z,80.22
2022-09-24T07:45:42.073Z,79.68
2022-09-24T07:48:10.700Z,79.21
2022-09-24T07:50:42.607Z,79.72
2022-09-24T07:53:12.004Z,80.18
2022-09-24T07:55:41.064Z,79.68
2022-09-24T07:58:14.782Z,79.82
2022-09-24T08:00:42.050Z,77.95
2022-09-24T08:03:08.694Z,77.24
2022-09-24T08:05:35.340Z,77.65
2022-09-24T08:08:01.954Z,77.34
2022-09-24T08:10:28.582Z,76.24
2022-09-24T08:12:57.083Z,76.27
2022-09-24T08:15:23.581Z,75.67
2022-09-24T08:17:50.622Z,74.38
2022-09-24T08:20:17.251Z,74.15
2022-09-24T08:22:43.797Z,74.89
2022-09-24T08:25:10.699Z,73.97
2022-09-24T08:27:37.568Z,73.68
2022-09-24T08:30:05.746Z,72.95
2022-09-24T08:32:32.580Z,72.15
2022-09-24T08:34:59.461Z,72.98
2022-09-24T08:37:28.030Z,71.20
2022-09-24T08:39:54.715Z,72.25
2022-09-24T08:43:02.086Z,70.39
2022-09-24T08:45:58.872Z,70.79
2022-09-24T08:48:31.697Z,70.88
2022-09-24T08:51:03.089Z,69.83
2022-09-24T08:53:40.679Z,72.23
2022-09-24T08:56:09.759Z,71.82
2022-09-24T08:58:58.344Z,71.60
2022-09-24T09:01:37.255Z,70.89
2022-09-24T09:04:25.766Z,70.77
2022-09-24T09:07:32.391Z,70.95
2022-09-24T09:10:01.519Z,70.87
2022-09-24T09:12:35.143Z,69.14
2022-09-24T09:15:09.755Z,69.64
2022-09-24T09:18:15.269Z,69.91
2022-09-24T09:20:47.895Z,69.71
2022-09-24T09:23:32.404Z,69.99
2022-09-24T09:26:00.147Z,68.35
2022-09-24T09:28:27.920Z,68.71
2022-09-24T09:31:00.235Z,69.02
2022-09-24T09:33:44.176Z,68.39
2022-09-24T09:36:20.003Z,68.17
2022-09-24T09:39:19.125Z,68.69
2022-09-24T09:42:27.794Z,67.63
2022-09-24T09:44:54.919Z,66.21
2022-09-24T09:47:42.364Z,66.77
2022-09-24T09:50:15.461Z,66.84
2022-09-24T09:52:41.993Z,67.29
2022-09-24T09:55:19.587Z,64.42
2022-09-24T09:57:46.092Z,64.83
2022-09-24T10:00:26.854Z,63.03
2022-09-24T10:02:54.477Z,62.99
2022-09-24T10:05:27.258Z,62.28
2022-09-24T10:07:57.718Z,63.14
2022-09-24T10:10:27.005Z,62.47
2022-09-24T10:13:13.797Z,61.17
2022-09-24T10:15:53.462Z,61.42
2022-09-24T10:18:37.685Z,61.92
2022-09-24T10:21:09.412Z,63.05
2022-09-24T10:23:39.206Z,60.07
2022-09-24T10:26:06.852Z,60.14
2022-09-24T10:28:56.136Z,61.52
2022-09-24T10:31:25.388Z,58.94
2022-09-24T10:33:55.107Z,57.47
2022-09-24T10:36:22.699Z,58.46
2022-09-24T10:38:50.147Z,58.23
2022-09-24T10:41:28.637Z,58.41
2022-09-24T10:43:57.361Z,57.42
2022-09-24T10:46:35.776Z,60.07
2022-09-24T10:49:25.384Z,57.74
2022-09-24T10:51:58.865Z,57.62
2022-09-24T10:54:44.695Z,58.88
2022-09-24T10:57:33.749Z,55.94
2022-09-24T11:00:19.491Z,57.84
2022-09-24T11:03:20.148Z,57.24
2022-09-24T11:06:08.084Z,55.64
2022-09-24T11:08:56.299Z,58.29
2022-09-24T11:11:49.828Z,59.57
2022-09-24T11:14:22.890Z,59.09
2022-09-24T11:17:10.811Z,58.58
2022-09-24T11:20:06.654Z,57.29
2022-09-24T11:23:12.599Z,56.39
2022-09-24T11:25:54.319Z,55.82
2022-09-24T11:28:23.778Z,55.79
2022-09-24T11:30:59.479Z,55.79
2022-09-24T11:33:56.968Z,57.35
2022-09-24T11:36:54.001Z,56.01
2022-09-24T11:39:35.722Z,55.61
2022-09-24T11:42:21.946Z,55.89
2022-09-24T11:45:15.739Z,54.49
2022-09-24T11:47:42.129Z,55.84
2022-09-24T11:50:30.286Z,52.62
2022-09-24T11:52:59.558Z,55.06
2022-09-24T11:55:34.818Z,53.76
2022-09-24T11:58:16.573Z,53.49
2022-09-24T12:00:57.640Z,53.62
2022-09-24T12:03:35.030Z,53.75
2022-09-24T12:06:07.487Z,54.02
2022-09-24T12:08:45.681Z,54.04
2022-09-24T12:12:02.452Z,53.23
2022-09-24T12:14:36.082Z,53.64
2022-09-24T12:17:15.581Z,51.92
2022-09-24T12:20:08.001Z,53.32
2022-09-24T12:22:39.265Z,53.14
2022-09-24T12:25:08.848Z,52.87
2022-09-24T12:27:37.455Z,52.74
2022-09-24T12:30:57.149Z,52.05
2022-09-24T12:33:49.372Z,52.57
2022-09-24T12:36:56.957Z,50.74
2022-09-24T12:39:28.955Z,51.63
2022-09-24T12:42:01.922Z,51.87
2022-09-24T12:44:47.301Z,51.82
2022-09-24T12:47:17.890Z,54.19
2022-09-24T12:49:50.431Z,52.52
2022-09-24T12:52:23.180Z,50.95
2022-09-24T12:54:56.854Z,51.43
2022-09-24T12:57:26.496Z,53.26
2022-09-24T13:00:02.760Z,52.34
2022-09-24T13:02:43.084Z,52.12
2022-09-24T13:05:23.734Z,51.99
2022-09-24T13:08:23.240Z,53.29
2022-09-24T13:10:53.824Z,53.64
2022-09-24T13:13:43.507Z,51.83
2022-09-24T13:16:20.739Z,53.55
2022-09-24T13:18:56.988Z,51.57
2022-09-24T13:21:26.996Z,51.46
2022-09-24T13:23:54.744Z,52.31
2022-09-24T13:26:21.217Z,50.46
2022-09-24T13:28:48.862Z,50.34
2022-09-24T13:31:27.974Z,51.07
2022-09-24T13:34:20.504Z,52.00
2022-09-24T13:36:58.848Z,53.54
2022-09-24T13:39:58.079Z,50.84
2022-09-24T13:42:37.760Z,52.35
2022-09-24T13:45:15.970Z,49.79
2022-09-24T13:47:51.776Z,52.07
2022-09-24T13:50:40.348Z,52.43
2022-09-24T13:53:49.777Z,52.44
2022-09-24T13:56:22.277Z,51.64
2022-09-24T13:58:51.387Z,49.80
2022-09-24T14:01:27.163Z,50.53
2022-09-24T14:03:57.815Z,52.53
2022-09-24T14:06:37.029Z,51.06
2022-09-24T14:09:15.075Z,50.25
2022-09-24T14:11:50.707Z,52.46
2022-09-24T14:14:21.088Z,51.17
2022-09-24T14:16:47.641Z,51.28
2022-09-24T14:19:16.118Z,50.87
2022-09-24T14:21:55.132Z,50.42
2022-09-24T14:24:33.486Z,51.27
2022-09-24T14:27:05.969Z,48.50
2022-09-24T14:29:49.719Z,51.65
2022-09-24T14:32:31.599Z,51.45
2022-09-24T14:35:00.851Z,51.08
2022-09-24T14:37:33.979Z,51.08
2022-09-24T14:40:05.196Z,50.89
2022-09-24T14:42:37.744Z,53.06
2022-09-24T14:45:08.214Z,51.71
2022-09-24T14:47:36.800Z,51.12
2022-09-24T14:50:06.074Z,52.71
2022-09-24T14:52:39.864Z,50.62
2022-09-24T14:55:16.287Z,51.53
2022-09-24T14:57:48.264Z,52.77
2022-09-24T15:00:25.388Z,52.51
2022-09-24T15:03:00.162Z,53.32
2022-09-24T15:05:28.324Z,52.89
2022-09-24T15:08:17.271Z,56.93
2022-09-24T15:10:55.039Z,53.90
2022-09-24T15:13:27.155Z,52.56
2022-09-24T15:16:28.370Z,54.43
2022-09-24T15:19:13.185Z,56.89
2022-09-24T15:21:40.015Z,55.37
2022-09-24T15:24:06.770Z,54.17
2022-09-24T15:26:35.166Z,52.89
2022-09-24T15:29:03.247Z,54.11
2022-09-24T15:31:30.276Z,53.70
2022-09-24T15:33:56.980Z,55.04
2022-09-24T15:36:24.092Z,57.77
2022-09-24T15:38:52.446Z,54.83
2022-09-24T15:41:20.015Z,58.42
2022-09-24T15:43:46.633Z,59.52
2022-09-24T15:46:13.296Z,59.72
2022-09-24T15:48:39.967Z,60.76
2022-09-24T15:51:11.722Z,59.77
2022-09-24T15:53:41.291Z,60.89
2022-09-24T15:56:08.158Z,63.03
2022-09-24T15:58:35.494Z,63.11
2022-09-24T16:01:02.589Z,61.52
2022-09-24T16:03:31.858Z,63.20
2022-09-24T16:05:59.972Z,62.81
2022-09-24T16:08:27.373Z,62.46
2022-09-24T16:10:53.925Z,62.89
2022-09-24T16:13:23.321Z,63.55
2022-09-24T16:15:50.032Z,64.79
2022-09-24T16:18:18.029Z,65.33
2022-09-24T16:20:48.132Z,65.69
2022-09-24T16:23:16.177Z,64.29
2022-09-24T16:25:54.655Z,65.85
2022-09-24T16:28:21.225Z,66.29
2022-09-24T16:30:47.823Z,67.09
2022-09-24T16:33:14.357Z,67.92
2022-09-24T16:35:40.919Z,68.25
2022-09-24T16:38:07.495Z,68.37
2022-09-24T16:40:34.153Z,68.73
2022-09-24T16:43:00.836Z,67.79
2022-09-24T16:45:27.350Z,68.72
2022-09-24T16:47:53.831Z,69.34
2022-09-24T16:50:23.563Z,69.82
2022-09-24T16:52:50.413Z,69.39
2022-09-24T16:55:17.032Z,69.50
2022-09-24T16:57:43.501Z,69.82
2022-09-24T17:00:11.119Z,68.50
2022-09-24T17:02:37.783Z,69.02
2022-09-24T17:05:04.756Z,69.95
2022-09-24T17:07:34.386Z,69.09
2022-09-24T17:10:16.275Z,69.00
2022-09-24T17:12:48.585Z,69.86
2022-09-24T17:15:19.341Z,70.24
2022-09-24T17:17:50.162Z,70.98
2022-09-24T17:20:18.522Z,71.35
2022-09-24T17:22:45.268Z,71.03
2022-09-24T17:25:11.735Z,71.35
2022-09-24T17:27:40.132Z,71.76
2022-09-24T17:30:07.726Z,72.36
2022-09-24T17:32:34.167Z,72.83
2022-09-24T17:35:04.654Z,73.32
2022-09-24T17:37:34.058Z,72.99
2022-09-24T17:40:00.728Z,73.31
2022-09-24T17:42:27.656Z,73.00
2022-09-24T17:44:54.445Z,73.14
2022-09-24T17:47:20.944Z,72.83
2022-09-24T17:49:47.420Z,72.01
2022-09-24T17:52:14.006Z,72.01
2022-09-24T17:54:40.716Z,72.49
2022-09-24T17:57:07.187Z,72.47
2022-09-24T17:59:33.642Z,73.22
2022-09-24T18:02:00.338Z,72.82
2022-09-24T18:04:28.327Z,73.42
2022-09-24T18:06:54.826Z,73.89
2022-09-24T18:09:21.271Z,73.87
2022-09-24T18:11:50.172Z,74.04
2022-09-24T18:14:22.046Z,73.93
2022-09-24T18:16:49.421Z,73.84
2022-09-24T18:19:17.611Z,73.87
2022-09-24T18:21:45.788Z,73.94
2022-09-24T18:24:13.209Z,74.10
2022-09-24T18:26:40.462Z,74.24
2022-09-24T18:29:16.432Z,74.24
2022-09-24T18:31:44.969Z,74.51
2022-09-24T18:34:15.140Z,74.35
2022-09-24T18:36:43.510Z,74.49
2022-09-24T18:39:13.350Z,74.74
2022-09-24T18:41:41.196Z,74.67
2022-09-24T18:44:09.192Z,75.04
2022-09-24T18:46:36.023Z,75.37
2022-09-24T18:49:03.523Z,75.53
2022-09-24T18:51:36.365Z,75.38
2022-09-24T18:54:06.172Z,75.15
2022-09-24T18:56:33.488Z,75.11
2022-09-24T18:59:26.738Z,75.72
2022-09-24T19:01:53.321Z,76.07
2022-09-24T19:04:19.903Z,76.08
2022-09-24T19:06:48.324Z,76.07
2022-09-24T19:09:17.485Z,76.31
2022-09-24T19:11:45.464Z,76.25
2022-09-24T19:14:13.605Z,75.24
2022-09-24T19:16:40.207Z,75.68
2022-09-24T19:19:07.383Z,76.21
2022-09-24T19:21:33.850Z,76.44
2022-09-24T19:24:00.587Z,76.90
2022-09-24T19:26:30.300Z,76.97
2022-09-24T19:28:57.571Z,76.78
2022-09-24T19:31:33.042Z,77.22
2022-09-24T19:34:03.385Z,77.65
2022-09-24T19:36:30.447Z,77.67
2022-09-24T19:38:57.916Z,78.10
2022-09-24T19:41:26.663Z,78.49
2022-09-24T19:44:02.060Z,78.36
2022-09-24T19:46:32.490Z,78.34
2022-09-24T19:48:59.447Z,78.06
2022-09-24T19:51:28.872Z,78.82
2022-09-24T19:54:00.870Z,78.69
2022-09-24T19:56:28.236Z,79.01
2022-09-24T19:58:57.215Z,79.64
2022-09-24T20:01:28.011Z,79.87
2022-09-24T20:03:55.993Z,79.91
2022-09-24T20:06:25.355Z,80.37
2022-09-24T20:08:52.136Z,80.57
2022-09-24T20:11:21.029Z,80.33
2022-09-24T20:13:48.686Z,80.61
2022-09-24T20:16:21.338Z,80.56
2022-09-24T20:18:49.539Z,81.29
2022-09-24T20:21:18.419Z,80.99
2022-09-24T20:23:46.960Z,80.92
2022-09-24T20:26:34.082Z,81.34
2022-09-24T20:29:02.030Z,81.27
2022-09-24T20:31:29.062Z,81.43
2022-09-24T20:33:55.603Z,81.78
2022-09-24T20:36:24.813Z,81.44
2022-09-24T20:38:52.835Z,81.89
2022-09-24T20:41:25.144Z,81.92
2022-09-24T20:43:55.407Z,82.17
2022-09-24T20:46:25.798Z,82.29
2022-09-24T20:48:53.855Z,81.89
2022-09-24T20:51:21.675Z,81.66
2022-09-24T20:53:49.368Z,81.96
2022-09-24T20:56:17.318Z,81.31
2022-09-24T20:58:44.560Z,81.26
2022-09-24T21:01:11.421Z,81.75
2022-09-24T21:03:45.140Z,81.47
2022-09-24T21:06:13.185Z,81.39
2022-09-24T21:08:42.465Z,81.56
2022-09-24T21:11:11.585Z,80.67
2022-09-24T21:13:44.839Z,80.66
2022-09-24T21:16:12.339Z,81.17
2022-09-24T21:18:42.976Z,81.13
2022-09-24T21:21:12.088Z,81.33
2022-09-24T21:23:39.708Z,81.35
2022-09-24T21:26:16.129Z,81.39
2022-09-24T21:28:43.655Z,81.40
2022-09-24T21:31:10.375Z,81.77
2022-09-24T21:33:36.968Z,81.54
2022-09-24T21:36:05.271Z,81.38
2022-09-24T21:38:32.109Z,80.27
2022-09-24T21:40:59.209Z,80.08
2022-09-24T21:43:28.614Z,80.53
2022-09-24T21:46:06.554Z,80.50
2022-09-24T21:48:34.163Z,80.96
2022-09-24T21:51:09.512Z,81.30
2022-09-24T21:53:36.909Z,80.98
2022-09-24T21:56:05.058Z,80.44
2022-09-24T21:58:32.592Z,79.81
2022-09-24T22:01:04.996Z,80.22
2022-09-24T22:03:38.285Z,80.17
2022-09-24T22:06:05.148Z,80.78
2022-09-24T22:08:32.053Z,81.10
2022-09-24T22:11:07.317Z,81.02
2022-09-24T22:13:34.733Z,81.19
2022-09-24T22:16:01.902Z,81.34
2022-09-24T22:18:29.249Z,81.63
2022-09-24T22:20:57.425Z,81.63
2022-09-24T22:23:24.413Z,81.70
2022-09-24T22:25:55.997Z,82.07
2022-09-24T22:28:24.543Z,81.69
2022-09-24T22:30:52.725Z,81.44
2022-09-24T22:33:38.473Z,81.20
2022-09-24T22:36:05.475Z,81.52
2022-09-24T22:38:32.969Z,81.34
2022-09-24T22:41:00.871Z,80.99
2022-09-24T22:43:29.375Z,81.07
2022-09-24T22:46:00.023Z,81.59
2022-09-24T22:48:26.949Z,81.48
2022-09-24T22:50:53.681Z,81.34
2022-09-24T22:53:21.159Z,81.60
2022-09-24T22:55:51.843Z,81.55
2022-09-24T22:58:19.182Z,81.28
2022-09-24T23:00:45.638Z,81.80
2022-09-24T23:03:12.134Z,80.94
2022-09-24T23:05:39.216Z,80.58
2022-09-24T23:08:05.766Z,80.82
2022-09-24T23:10:32.321Z,80.74
2022-09-24T23:12:58.897Z,80.52
2022-09-24T23:15:25.698Z,80.69
2022-09-24T23:17:52.931Z,80.78
2022-09-24T23:20:19.434Z,80.74
2022-09-24T23:22:45.925Z,80.83
2022-09-24T23:25:12.408Z,80.59
2022-09-24T23:27:38.981Z,81.00
2022-09-24T23:30:06.053Z,80.57
2022-09-24T23:32:32.491Z,80.90
2022-09-24T23:34:59.030Z,81.18
2022-09-24T23:37:25.557Z,80.64
2022-09-24T23:39:52.019Z,80.32
2022-09-24T23:42:18.539Z,81.09
2022-09-24T23:44:45.442Z,80.54
2022-09-24T23:47:11.919Z,80.30
2022-09-24T23:49:38.390Z,80.64
2022-09-24T23:52:05.300Z,80.96
2022-09-24T23:54:31.832Z,80.09
2022-09-24T23:56:58.463Z,79.29
2022-09-24T23:59:24.934Z,80.10
